createdAt,value
2022-09-23T00:01:20.381Z,6.95
2022-09-23T00:03:49.111Z,6.94
2022-09-23T00:06:22.071Z,6.96
2022-09-23T00:08:50.177Z,6.95
2022-09-23T00:11:20.262Z,6.96
2022-09-23T00:13:52.366Z,6.98
2022-09-23T00:16:25.564Z,6.98
2022-09-23T00:18:52.516Z,6.99
2022-09-23T00:21:21.578Z,6.95
2022-09-23T00:23:48.890Z,6.94
2022-09-23T00:26:19.056Z,6.93
2022-09-23T00:28:46.448Z,6.92
2022-09-23T00:31:20.394Z,6.90
2022-09-23T00:33:48.041Z,6.91
2022-09-23T00:36:16.274Z,6.89
2022-09-23T00:38:48.561Z,6.89
2022-09-23T00:41:16.243Z,6.91
2022-09-23T00:44:00.256Z,6.92
2022-09-23T00:46:41.137Z,6.91
2022-09-23T00:49:16.073Z,6.95
2022-09-23T00:51:54.552Z,7.02
2022-09-23T00:54:24.518Z,7.06
2022-09-23T00:56:51.680Z,7.02
2022-09-23T00:59:19.249Z,7.07
2022-09-23T01:01:49.722Z,7.10
2022-09-23T01:04:16.741Z,7.10
2022-09-23T01:06:43.556Z,7.11
2022-09-23T01:09:10.740Z,7.09
2022-09-23T01:11:38.114Z,7.08
2022-09-23T01:14:04.973Z,7.02
2022-09-23T01:16:49.395Z,6.99
2022-09-23T01:20:05.758Z,6.93
2022-09-23T01:22:41.909Z,6.85
2022-09-23T01:25:23.932Z,6.81
2022-09-23T01:28:15.620Z,6.78
2022-09-23T01:30:52.463Z,6.76
2022-09-23T01:33:47.602Z,6.75
2022-09-23T01:36:26.023Z,6.75
2022-09-23T01:38:58.478Z,6.74
2022-09-23T01:41:31.539Z,6.74
2022-09-23T01:44:13.505Z,6.71
2022-09-23T01:46:51.479Z,6.71
2022-09-23T01:49:52.818Z,6.73
2022-09-23T01:52:44.690Z,6.68
2022-09-23T01:55:23.972Z,6.61
2022-09-23T01:57:58.913Z,6.57
2022-09-23T02:00:29.972Z,6.52
2022-09-23T02:03:07.074Z,6.44
2022-09-23T02:05:48.621Z,6.40
2022-09-23T02:08:24.709Z,6.33
2022-09-23T02:11:06.665Z,6.31
2022-09-23T02:13:45.728Z,6.28
2022-09-23T02:16:25.606Z,6.28
2022-09-23T02:18:58.846Z,6.29
2022-09-23T02:21:37.179Z,6.26
2022-09-23T02:24:22.350Z,6.24
2022-09-23T02:27:01.581Z,6.23
2022-09-23T02:29:31.690Z,6.23
2022-09-23T02:32:05.069Z,6.22
2022-09-23T02:34:45.504Z,6.22
2022-09-23T02:37:27.310Z,6.22
2022-09-23T02:40:13.878Z,6.19
2022-09-23T02:43:13.308Z,6.19
2022-09-23T02:45:40.318Z,6.18
2022-09-23T02:48:13.756Z,6.14
2022-09-23T02:50:43.270Z,6.13
2022-09-23T02:53:11.008Z,6.08
2022-09-23T02:55:38.776Z,6.02
2022-09-23T02:58:05.782Z,5.96
2022-09-23T03:00:50.243Z,5.94
2022-09-23T03:03:20.507Z,5.91
2022-09-23T03:05:56.298Z,5.85
2022-09-23T03:08:36.886Z,5.81
2022-09-23T03:11:13.195Z,5.79
2022-09-23T03:14:16.908Z,5.73
2022-09-23T03:16:53.070Z,5.68
2022-09-23T03:19:30.316Z,5.62
2022-09-23T03:22:08.253Z,5.55
2022-09-23T03:24:38.035Z,5.54
2022-09-23T03:27:13.980Z,5.48
2022-09-23T03:29:47.850Z,5.45
2022-09-23T03:32:17.233Z,5.41
2022-09-23T03:34:47.887Z,5.35
2022-09-23T03:37:41.320Z,5.26
2022-09-23T03:40:23.488Z,5.20
2022-09-23T03:42:51.817Z,5.18
2022-09-23T03:45:26.290Z,5.17
2022-09-23T03:47:53.395Z,5.12
2022-09-23T03:50:23.093Z,5.09
2022-09-23T03:52:50.788Z,5.04
2022-09-23T03:55:19.713Z,4.99
2022-09-23T03:57:46.895Z,4.92
2022-09-23T04:00:15.250Z,4.90
2022-09-23T04:02:42.261Z,4.83
2022-09-23T04:05:10.338Z,4.82
2022-09-23T04:07:37.500Z,4.79
2022-09-23T04:10:06.159Z,4.76
2022-09-23T04:12:33.346Z,4.74
2022-09-23T04:15:00.275Z,4.69
2022-09-23T04:17:27.418Z,4.67
2022-09-23T04:19:54.631Z,4.62
2022-09-23T04:22:21.631Z,4.60
2022-09-23T04:24:49.359Z,4.53
2022-09-23T04:27:16.860Z,4.47
2022-09-23T04:29:43.953Z,4.46
2022-09-23T04:32:11.085Z,4.46
2022-09-23T04:34:38.356Z,4.42
2022-09-23T04:37:05.432Z,4.45
2022-09-23T04:39:32.457Z,4.47
2022-09-23T04:41:59.799Z,4.48
2022-09-23T04:44:28.382Z,4.53
2022-09-23T04:46:55.350Z,4.54
2022-09-23T04:49:24.740Z,4.59
2022-09-23T04:51:51.796Z,4.60
2022-09-23T04:54:19.066Z,4.62
2022-09-23T04:56:46.170Z,4.66
2022-09-23T04:59:13.114Z,4.68
2022-09-23T05:01:40.276Z,4.73
2022-09-23T05:04:11.202Z,4.78
2022-09-23T05:06:38.429Z,4.80
2022-09-23T05:09:07.778Z,4.86
2022-09-23T05:11:35.424Z,4.92
2022-09-23T05:14:02.563Z,4.98
2022-09-23T05:16:29.872Z,4.99
2022-09-23T05:18:58.134Z,5.05
2022-09-23T05:21:30.301Z,5.09
2022-09-23T05:24:01.128Z,5.20
2022-09-23T05:26:30.911Z,5.29
2022-09-23T05:28:59.103Z,5.37
2022-09-23T05:31:28.372Z,5.46
2022-09-23T05:34:02.157Z,5.59
2022-09-23T05:36:34.461Z,5.74
2022-09-23T05:39:05.053Z,5.83
2022-09-23T05:41:32.886Z,5.93
2022-09-23T05:44:00.039Z,6.08
2022-09-23T05:46:29.515Z,6.12
2022-09-23T05:49:02.196Z,6.21
2022-09-23T05:51:32.011Z,6.26
2022-09-23T05:54:00.237Z,6.26
2022-09-23T05:56:28.964Z,6.46
2022-09-23T05:58:58.436Z,6.62
2022-09-23T06:01:28.279Z,6.82
2022-09-23T06:03:57.059Z,6.88
2022-09-23T06:06:28.335Z,7.02
2022-09-23T06:08:55.507Z,7.16
2022-09-23T06:11:22.801Z,7.44
2022-09-23T06:13:54.300Z,7.62
2022-09-23T06:16:21.527Z,7.83
2022-09-23T06:18:48.511Z,8.06
2022-09-23T06:21:19.047Z,8.60
2022-09-23T06:23:46.521Z,8.42
2022-09-23T06:26:15.767Z,8.89
2022-09-23T06:28:44.788Z,10.76
2022-09-23T06:31:15.070Z,12.39
2022-09-23T06:33:45.944Z,13.24
2022-09-23T06:36:25.023Z,13.56
2022-09-23T06:38:57.855Z,14.78
2022-09-23T06:41:25.108Z,14.28
2022-09-23T06:43:55.692Z,15.48
2022-09-23T06:46:22.650Z,16.42
2022-09-23T06:48:51.183Z,17.13
2022-09-23T06:51:19.890Z,17.33
2022-09-23T06:53:49.479Z,17.68
2022-09-23T06:56:17.968Z,18.09
2022-09-23T06:58:45.020Z,18.21
2022-09-23T07:01:16.325Z,18.73
2022-09-23T07:03:45.099Z,18.74
2022-09-23T07:06:12.423Z,18.72
2022-09-23T07:08:43.467Z,19.09
2022-09-23T07:11:12.561Z,19.08
2022-09-23T07:13:41.275Z,18.96
2022-09-23T07:16:09.841Z,19.25
2022-09-23T07:18:37.666Z,19.38
2022-09-23T07:21:09.586Z,19.19
2022-09-23T07:23:37.872Z,19.28
2022-09-23T07:26:05.981Z,19.47
2022-09-23T07:28:32.953Z,19.76
2022-09-23T07:31:10.488Z,19.92
2022-09-23T07:33:39.905Z,20.46
2022-09-23T07:36:10.227Z,20.94
2022-09-23T07:38:41.551Z,20.92
2022-09-23T07:41:14.905Z,20.87
2022-09-23T07:43:48.922Z,21.05
2022-09-23T07:46:17.724Z,21.06
2022-09-23T07:48:46.051Z,21.19
2022-09-23T07:51:18.580Z,21.48
2022-09-23T07:53:50.707Z,21.47
2022-09-23T07:56:22.097Z,21.58
2022-09-23T07:59:00.485Z,21.58
2022-09-23T08:01:33.223Z,21.76
2022-09-23T08:04:05.654Z,21.68
2022-09-23T08:06:35.201Z,21.88
2022-09-23T08:09:04.590Z,21.32
2022-09-23T08:11:31.804Z,20.83
2022-09-23T08:13:58.807Z,20.86
2022-09-23T08:16:25.981Z,20.55
2022-09-23T08:18:53.056Z,20.55
2022-09-23T08:21:21.676Z,20.09
2022-09-23T08:23:49.698Z,19.94
2022-09-23T08:26:21.538Z,19.19
2022-09-23T08:28:50.292Z,18.47
2022-09-23T08:31:17.511Z,18.69
2022-09-23T08:33:44.599Z,18.65
2022-09-23T08:36:11.823Z,18.44
2022-09-23T08:38:39.014Z,17.84
2022-09-23T08:41:36.259Z,18.08
2022-09-23T08:44:13.986Z,17.78
2022-09-23T08:46:49.737Z,17.92
2022-09-23T08:49:26.081Z,17.70
2022-09-23T08:51:54.973Z,18.31
2022-09-23T08:54:27.965Z,18.26
2022-09-23T08:57:00.265Z,18.15
2022-09-23T08:59:42.871Z,18.13
2022-09-23T09:02:18.172Z,17.80
2022-09-23T09:04:50.388Z,17.80
2022-09-23T09:07:38.809Z,17.58
2022-09-23T09:10:12.202Z,17.64
2022-09-23T09:12:47.949Z,17.37
2022-09-23T09:15:19.538Z,17.62
2022-09-23T09:18:06.518Z,17.83
2022-09-23T09:20:59.089Z,18.08
2022-09-23T09:23:40.679Z,18.12
2022-09-23T09:26:17.745Z,17.86
2022-09-23T09:29:33.762Z,17.74
2022-09-23T09:32:29.432Z,18.13
2022-09-23T09:35:05.653Z,18.25
2022-09-23T09:37:43.294Z,17.92
2022-09-23T09:40:15.230Z,17.36
2022-09-23T09:42:46.974Z,17.76
2022-09-23T09:45:41.857Z,17.77
2022-09-23T09:48:11.722Z,17.65
2022-09-23T09:50:43.845Z,17.61
2022-09-23T09:53:22.460Z,17.79
2022-09-23T09:56:04.626Z,17.77
2022-09-23T09:58:41.714Z,17.84
2022-09-23T10:01:23.318Z,17.76
2022-09-23T10:03:55.693Z,17.75
2022-09-23T10:06:27.920Z,17.84
2022-09-23T10:09:01.857Z,17.77
2022-09-23T10:11:33.013Z,17.83
2022-09-23T10:14:00.542Z,17.27
2022-09-23T10:16:31.863Z,17.13
2022-09-23T10:19:00.883Z,17.14
2022-09-23T10:21:34.897Z,17.06
2022-09-23T10:24:05.746Z,17.39
2022-09-23T10:26:39.957Z,17.64
2022-09-23T10:29:40.818Z,17.69
2022-09-23T10:32:14.524Z,17.74
2022-09-23T10:34:46.686Z,17.77
2022-09-23T10:37:30.217Z,17.50
2022-09-23T10:40:19.135Z,17.50
2022-09-23T10:43:08.305Z,17.40
2022-09-23T10:45:58.582Z,17.38
2022-09-23T10:48:52.621Z,17.30
2022-09-23T10:51:38.891Z,17.33
2022-09-23T10:54:18.222Z,17.19
2022-09-23T10:57:41.775Z,17.45
2022-09-23T11:00:23.405Z,17.39
2022-09-23T11:03:11.758Z,17.10
2022-09-23T11:06:05.324Z,16.73
2022-09-23T11:08:42.736Z,17.07
2022-09-23T11:11:17.541Z,17.07
2022-09-23T11:14:17.197Z,17.16
2022-09-23T11:16:51.075Z,17.09
2022-09-23T11:19:56.068Z,17.14
2022-09-23T11:22:23.232Z,17.26
2022-09-23T11:24:53.244Z,17.37
2022-09-23T11:28:02.200Z,17.24
2022-09-23T11:30:45.293Z,17.27
2022-09-23T11:33:18.257Z,17.29
2022-09-23T11:36:05.060Z,17.14
2022-09-23T11:38:37.571Z,17.24
2022-09-23T11:41:22.502Z,17.18
2022-09-23T11:43:58.906Z,17.16
2022-09-23T11:46:48.788Z,17.13
2022-09-23T11:49:29.852Z,16.64
2022-09-23T11:52:08.991Z,16.61
2022-09-23T11:54:49.674Z,16.68
2022-09-23T11:57:45.853Z,16.82
2022-09-23T12:00:22.143Z,16.91
2022-09-23T12:03:09.394Z,17.04
2022-09-23T12:06:28.898Z,16.88
2022-09-23T12:09:02.296Z,17.00
2022-09-23T12:11:50.605Z,17.07
2022-09-23T12:14:36.276Z,17.11
2022-09-23T12:17:06.125Z,17.18
2022-09-23T12:19:54.754Z,17.28
2022-09-23T12:22:47.833Z,17.04
2022-09-23T12:25:49.016Z,17.04
2022-09-23T12:28:28.348Z,16.96
2022-09-23T12:30:59.631Z,16.98
2022-09-23T12:33:33.206Z,16.91
2022-09-23T12:36:14.936Z,17.00
2022-09-23T12:38:53.336Z,16.93
2022-09-23T12:41:27.289Z,16.99
2022-09-23T12:44:29.715Z,17.04
2022-09-23T12:47:28.054Z,16.81
2022-09-23T12:49:56.679Z,16.92
2022-09-23T12:52:33.515Z,16.94
2022-09-23T12:55:23.189Z,17.03
2022-09-23T12:57:50.645Z,16.91
2022-09-23T13:00:20.601Z,16.88
2022-09-23T13:02:47.737Z,16.86
2022-09-23T13:05:45.718Z,16.84
2022-09-23T13:08:19.121Z,16.84
2022-09-23T13:11:00.054Z,16.90
2022-09-23T13:13:33.284Z,16.84
2022-09-23T13:16:57.081Z,16.84
2022-09-23T13:19:27.169Z,16.92
2022-09-23T13:22:07.485Z,16.75
2022-09-23T13:24:40.270Z,16.64
2022-09-23T13:27:30.696Z,16.66
2022-09-23T13:30:22.437Z,16.68
2022-09-23T13:33:16.769Z,16.61
2022-09-23T13:35:51.464Z,16.67
2022-09-23T13:38:20.191Z,16.62
2022-09-23T13:40:47.931Z,16.59
2022-09-23T13:43:23.720Z,16.47
2022-09-23T13:45:51.562Z,16.48
2022-09-23T13:48:23.623Z,16.50
2022-09-23T13:51:30.274Z,16.51
2022-09-23T13:53:59.798Z,16.55
2022-09-23T13:56:29.843Z,16.53
2022-09-23T13:59:27.402Z,16.51
2022-09-23T14:02:11.821Z,16.49
2022-09-23T14:04:39.507Z,16.43
2022-09-23T14:07:13.286Z,16.38
2022-09-23T14:09:47.038Z,16.35
2022-09-23T14:12:15.130Z,16.37
2022-09-23T14:14:43.483Z,16.42
2022-09-23T14:17:17.692Z,16.36
2022-09-23T14:19:46.164Z,16.37
2022-09-23T14:22:42.471Z,16.25
2022-09-23T14:25:15.605Z,16.15
2022-09-23T14:27:44.455Z,16.20
2022-09-23T14:30:20.045Z,16.25
2022-09-23T14:32:50.004Z,16.30
2022-09-23T14:35:27.522Z,16.27
2022-09-23T14:38:16.957Z,16.20
2022-09-23T14:41:15.260Z,16.15
2022-09-23T14:44:02.127Z,16.11
2022-09-23T14:46:35.051Z,16.10
2022-09-23T14:49:05.792Z,16.00
2022-09-23T14:51:56.197Z,16.03
2022-09-23T14:54:36.051Z,15.97
2022-09-23T14:57:18.428Z,15.89
2022-09-23T15:00:14.040Z,15.84
2022-09-23T15:03:00.226Z,15.79
2022-09-23T15:05:44.579Z,15.82
2022-09-23T15:08:23.094Z,15.87
2022-09-23T15:10:50.551Z,15.82
2022-09-23T15:13:22.619Z,15.85
2022-09-23T15:15:53.593Z,15.82
2022-09-23T15:18:28.904Z,15.82
2022-09-23T15:21:01.174Z,15.81
2022-09-23T15:23:41.834Z,15.75
2022-09-23T15:26:18.463Z,15.74
2022-09-23T15:28:46.717Z,15.66
2022-09-23T15:31:16.025Z,15.58
2022-09-23T15:33:47.795Z,15.47
2022-09-23T15:36:27.312Z,15.34
2022-09-23T15:38:58.998Z,15.29
2022-09-23T15:41:26.750Z,15.22
2022-09-23T15:43:56.570Z,15.09
2022-09-23T15:46:28.281Z,15.11
2022-09-23T15:49:04.815Z,15.10
2022-09-23T15:51:32.082Z,14.96
2022-09-23T15:53:59.227Z,14.84
2022-09-23T15:56:29.204Z,14.72
2022-09-23T15:58:56.121Z,14.63
2022-09-23T16:01:29.584Z,14.62
2022-09-23T16:03:56.813Z,14.48
2022-09-23T16:06:27.899Z,14.42
2022-09-23T16:08:55.029Z,14.24
2022-09-23T16:11:24.939Z,14.10
2022-09-23T16:13:52.440Z,14.05
2022-09-23T16:16:23.228Z,14.00
2022-09-23T16:18:52.340Z,13.84
2022-09-23T16:21:24.201Z,13.71
2022-09-23T16:23:51.599Z,13.65
2022-09-23T16:26:21.042Z,13.61
2022-09-23T16:28:53.474Z,13.53
2022-09-23T16:31:22.377Z,13.35
2022-09-23T16:33:51.411Z,13.24
2022-09-23T16:36:23.194Z,13.17
2022-09-23T16:38:50.420Z,13.06
2022-09-23T16:41:17.443Z,12.87
2022-09-23T16:43:44.592Z,12.73
2022-09-23T16:46:13.552Z,12.62
2022-09-23T16:48:41.747Z,12.53
2022-09-23T16:51:15.026Z,12.41
2022-09-23T16:53:42.798Z,12.29
2022-09-23T16:56:13.159Z,12.18
2022-09-23T16:58:42.860Z,12.13
2022-09-23T17:01:34.613Z,11.99
2022-09-23T17:04:01.878Z,11.81
2022-09-23T17:06:29.354Z,11.65
2022-09-23T17:08:59.318Z,11.52
2022-09-23T17:11:32.180Z,11.41
2022-09-23T17:14:01.236Z,11.26
2022-09-23T17:16:31.362Z,11.13
2022-09-23T17:18:59.012Z,11.00
2022-09-23T17:21:27.968Z,10.92
2022-09-23T17:23:58.045Z,10.85
2022-09-23T17:26:26.506Z,10.77
2022-09-23T17:28:55.495Z,10.71
2022-09-23T17:31:23.689Z,10.64
2022-09-23T17:33:52.055Z,10.55
2022-09-23T17:36:20.451Z,10.45
2022-09-23T17:38:48.646Z,10.43
2022-09-23T17:41:17.288Z,10.37
2022-09-23T17:43:46.771Z,10.38
2022-09-23T17:46:18.761Z,10.35
2022-09-23T17:48:46.742Z,10.27
2022-09-23T17:51:19.917Z,10.20
2022-09-23T17:53:51.308Z,10.09
2022-09-23T17:56:21.044Z,10.02
2022-09-23T17:58:49.573Z,9.95
2022-09-23T18:01:19.640Z,9.88
2022-09-23T18:03:47.488Z,9.81
2022-09-23T18:06:20.488Z,9.73
2022-09-23T18:08:51.352Z,9.64
2022-09-23T18:11:24.182Z,9.60
2022-09-23T18:13:52.642Z,9.55
2022-09-23T18:16:24.922Z,9.50
2022-09-23T18:18:58.006Z,9.45
2022-09-23T18:21:28.619Z,9.39
2022-09-23T18:24:06.533Z,9.33
2022-09-23T18:26:47.201Z,9.28
2022-09-23T18:29:15.974Z,9.24
2022-09-23T18:31:44.456Z,9.18
2022-09-23T18:34:19.060Z,9.13
2022-09-23T18:36:46.255Z,9.07
2022-09-23T18:39:13.651Z,9.02
2022-09-23T18:41:41.258Z,8.95
2022-09-23T18:44:09.788Z,8.89
2022-09-23T18:46:37.472Z,8.80
2022-09-23T18:49:22.924Z,8.75
2022-09-23T18:51:55.975Z,8.73
2022-09-23T18:54:27.392Z,8.69
2022-09-23T18:56:55.712Z,8.67
2022-09-23T18:59:25.988Z,8.63
2022-09-23T19:01:59.054Z,8.59
2022-09-23T19:04:27.419Z,8.54
2022-09-23T19:06:56.773Z,8.48
2022-09-23T19:09:27.068Z,8.41
2022-09-23T19:11:54.317Z,8.36
2022-09-23T19:14:21.842Z,8.31
2022-09-23T19:16:52.011Z,8.24
2022-09-23T19:19:21.619Z,8.17
2022-09-23T19:21:48.557Z,8.10
2022-09-23T19:24:16.067Z,8.09
2022-09-23T19:26:44.457Z,8.05
2022-09-23T19:29:19.458Z,8.00
2022-09-23T19:31:46.673Z,7.95
2022-09-23T19:34:20.400Z,7.92
2022-09-23T19:36:47.797Z,7.87
2022-09-23T19:39:19.144Z,7.83
2022-09-23T19:41:46.965Z,7.78
2022-09-23T19:44:17.159Z,7.77
2022-09-23T19:46:53.492Z,7.71
2022-09-23T19:49:24.703Z,7.63
2022-09-23T19:51:51.896Z,7.58
2022-09-23T19:54:20.779Z,7.56
2022-09-23T19:56:49.758Z,7.51
2022-09-23T19:59:19.031Z,7.47
2022-09-23T20:01:48.399Z,7.41
2022-09-23T20:04:16.897Z,7.37
2022-09-23T20:06:49.711Z,7.32
2022-09-23T20:09:17.060Z,7.27
2022-09-23T20:11:44.417Z,7.24
2022-09-23T20:14:12.089Z,7.21
2022-09-23T20:16:40.627Z,7.15
2022-09-23T20:19:10.493Z,7.11
2022-09-23T20:21:37.763Z,7.13
2022-09-23T20:24:07.053Z,7.12
2022-09-23T20:26:52.917Z,7.16
2022-09-23T20:29:20.561Z,7.16
2022-09-23T20:31:47.944Z,7.15
2022-09-23T20:34:15.241Z,7.14
2022-09-23T20:36:44.852Z,7.10
2022-09-23T20:39:12.912Z,7.07
2022-09-23T20:41:40.731Z,7.03
2022-09-23T20:44:12.594Z,7.04
2022-09-23T20:46:47.780Z,7.09
2022-09-23T20:49:17.318Z,7.06
2022-09-23T20:51:44.626Z,7.04
2022-09-23T20:54:12.332Z,7.00
2022-09-23T20:56:39.677Z,6.94
2022-09-23T20:59:06.680Z,6.90
2022-09-23T21:01:35.334Z,6.87
2022-09-23T21:04:08.191Z,6.82
2022-09-23T21:06:36.777Z,6.80
2022-09-23T21:09:06.088Z,6.74
2022-09-23T21:11:35.747Z,6.70
2022-09-23T21:14:02.968Z,6.67
2022-09-23T21:16:30.707Z,6.62
2022-09-23T21:18:59.095Z,6.59
2022-09-23T21:21:26.794Z,6.58
2022-09-23T21:23:54.203Z,6.55
2022-09-23T21:26:23.619Z,6.51
2022-09-23T21:29:01.207Z,6.47
2022-09-23T21:31:33.829Z,6.44
2022-09-23T21:34:09.473Z,6.42
2022-09-23T21:36:41.519Z,6.38
2022-09-23T21:39:10.540Z,6.35
2022-09-23T21:41:38.266Z,6.32
2022-09-23T21:44:06.786Z,6.29
2022-09-23T21:46:34.499Z,6.28
2022-09-23T21:49:03.703Z,6.26
2022-09-23T21:51:40.846Z,6.24
2022-09-23T21:54:15.914Z,6.24
2022-09-23T21:56:44.272Z,6.20
2022-09-23T21:59:11.533Z,6.18
2022-09-23T22:01:42.067Z,6.16
2022-09-23T22:04:20.920Z,6.13
2022-09-23T22:06:49.280Z,6.16
2022-09-23T22:09:19.888Z,6.15
2022-09-23T22:12:07.959Z,6.13
2022-09-23T22:14:35.840Z,6.15
2022-09-23T22:17:05.208Z,6.13
2022-09-23T22:19:41.589Z,6.10
2022-09-23T22:22:15.993Z,6.11
2022-09-23T22:24:43.907Z,6.14
2022-09-23T22:27:14.801Z,6.16
2022-09-23T22:30:03.247Z,6.20
2022-09-23T22:32:43.556Z,6.31
2022-09-23T22:35:17.746Z,6.38
2022-09-23T22:37:48.260Z,6.42
2022-09-23T22:40:15.887Z,6.42
2022-09-23T22:42:43.135Z,6.48
2022-09-23T22:45:11.684Z,6.46
2022-09-23T22:47:40.880Z,6.51
2022-09-23T22:50:09.272Z,6.52
2022-09-23T22:52:41.795Z,6.51
2022-09-23T22:55:09.375Z,6.59
2022-09-23T22:57:36.763Z,6.69
2022-09-23T23:00:08.714Z,6.74
2022-09-23T23:02:55.587Z,6.78
2022-09-23T23:05:33.120Z,6.80
2022-09-23T23:08:01.391Z,6.80
2022-09-23T23:10:28.585Z,6.72
2022-09-23T23:12:55.842Z,6.68
2022-09-23T23:15:22.899Z,6.60
2022-09-23T23:17:51.997Z,6.54
2022-09-23T23:20:20.136Z,6.46
2022-09-23T23:22:47.229Z,6.40
2022-09-23T23:25:18.862Z,6.37
2022-09-23T23:27:45.736Z,6.32
2022-09-23T23:30:16.060Z,6.23
2022-09-23T23:32:42.907Z,6.19
2022-09-23T23:35:09.965Z,6.15
2022-09-23T23:37:37.424Z,6.09
2022-09-23T23:40:05.629Z,6.07
2022-09-23T23:42:32.965Z,6.03
2022-09-23T23:45:00.126Z,6.00
2022-09-23T23:47:27.236Z,5.95
2022-09-23T23:49:56.693Z,5.90
2022-09-23T23:52:26.757Z,5.85
2022-09-23T23:54:53.871Z,5.81
2022-09-23T23:57:20.748Z,5.77
2022-09-23T23:59:47.914Z,5.74
